Time;durP1;ratioP1;P1;durP2;ratioP2;P2;SDS_P1;SDS_P2;PMS_P1;PMS_P2;Temp;Humidity;BMP_temperature;BMP_pressure;BME280_temperature;BME280_humidity;BME280_pressure;Samples;Min_cycle;Max_cycle;Signal;HPM_P1;HPM_P2
2023/06/27 00:01:18;;;;;;;12.15;3.10;;;;;;;15.22;100.00;102059.03;5202914;28;20025;-69
2023/06/27 00:03:51;;;;;;;7.40;2.33;;;;;;;15.27;100.00;102059.38;5202836;28;20088;-69
2023/06/27 00:06:22;;;;;;;8.68;2.63;;;;;;;15.32;100.00;102061.59;5202425;28;20479;-69
2023/06/27 00:08:52;;;;;;;11.07;3.33;;;;;;;15.31;100.00;102062.59;5202712;28;20036;-69
2023/06/27 00:11:23;;;;;;;8.88;3.10;;;;;;;15.30;100.00;102048.22;5202710;28;20033;-68
2023/06/27 00:13:54;;;;;;;14.57;3.13;;;;;;;15.30;100.00;102053.63;5202843;28;20662;-68
2023/06/27 00:16:24;;;;;;;12.45;2.88;;;;;;;15.32;100.00;102050.78;5202193;28;20701;-68
2023/06/27 00:18:55;;;;;;;16.52;3.03;;;;;;;15.33;100.00;102053.31;5202599;28;20171;-68
2023/06/27 00:21:28;;;;;;;8.65;3.45;;;;;;;15.30;100.00;102045.50;5202459;28;20033;-69
2023/06/27 00:24:00;;;;;;;17.52;2.92;;;;;;;15.33;100.00;102052.47;5202627;28;20084;-69
2023/06/27 00:26:31;;;;;;;12.43;2.92;;;;;;;15.32;100.00;102053.47;5202283;28;20075;-68
2023/06/27 00:29:02;;;;;;;12.68;3.10;;;;;;;15.33;100.00;102056.00;5202442;28;20033;-68
2023/06/27 00:31:33;;;;;;;18.17;3.47;;;;;;;15.34;100.00;102052.28;5202584;28;20025;-69
2023/06/27 00:34:03;;;;;;;8.23;2.40;;;;;;;15.37;100.00;102056.53;5202572;28;20546;-69
2023/06/27 00:36:34;;;;;;;11.23;2.67;;;;;;;15.40;100.00;102053.47;5202076;28;20075;-68
2023/06/27 00:39:04;;;;;;;13.95;3.35;;;;;;;15.42;100.00;102055.00;5204107;28;20160;-68
2023/06/27 00:41:35;;;;;;;20.85;3.25;;;;;;;15.41;100.00;102047.03;5206596;28;20018;-69
2023/06/27 00:44:08;;;;;;;15.02;2.72;;;;;;;15.40;100.00;102050.75;5206643;28;20528;-68
2023/06/27 00:46:40;;;;;;;14.07;4.50;;;;;;;15.39;100.00;102049.06;5205663;28;20041;-69
2023/06/27 00:49:11;;;;;;;14.88;4.05;;;;;;;15.39;100.00;102055.31;5238588;28;20037;-68
2023/06/27 00:51:43;;;;;;;12.13;2.60;;;;;;;15.37;100.00;102059.22;5206393;28;20097;-69
2023/06/27 00:54:14;;;;;;;11.07;3.00;;;;;;;15.37;100.00;102054.66;5206329;28;20025;-69
2023/06/27 00:56:45;;;;;;;11.25;3.13;;;;;;;15.34;100.00;102067.66;5205875;28;20506;-69
2023/06/27 00:59:16;;;;;;;10.68;2.92;;;;;;;15.29;100.00;102060.91;5206349;28;20029;-69
2023/06/27 01:01:47;;;;;;;13.40;3.55;;;;;;;15.27;100.00;102060.22;5207036;28;20018;-69
2023/06/27 01:04:18;;;;;;;17.13;2.88;;;;;;;15.30;100.00;102061.75;5206551;28;20025;-69
2023/06/27 01:07:04;;;;;;;10.73;3.03;;;;;;;15.26;100.00;102063.09;5206178;28;20021;-69
2023/06/27 01:09:43;;;;;;;17.42;3.20;;;;;;;15.21;100.00;102063.63;5206159;28;20438;-69
2023/06/27 01:12:45;;;;;;;18.83;3.45;;;;;;;15.22;100.00;102059.03;5206161;28;20077;-68
2023/06/27 01:15:16;;;;;;;11.55;2.90;;;;;;;15.23;100.00;102066.97;5206269;28;20036;-68
2023/06/27 01:17:46;;;;;;;10.95;3.08;;;;;;;15.25;100.00;102064.09;5205036;28;20029;-68
2023/06/27 01:20:20;;;;;;;10.98;2.85;;;;;;;15.25;100.00;102058.69;5205477;28;20394;-69
2023/06/27 01:23:24;;;;;;;14.80;2.85;;;;;;;15.24;100.00;102065.13;5205938;28;20025;-69
2023/06/27 01:26:08;;;;;;;11.70;2.88;;;;;;;15.26;100.00;102061.25;5205366;28;20030;-68
2023/06/27 01:28:38;;;;;;;12.57;2.67;;;;;;;15.28;100.00;102063.78;5205426;28;20553;-69
2023/06/27 01:31:18;;;;;;;9.27;2.67;;;;;;;15.28;100.00;102061.91;5205946;28;20029;-69
2023/06/27 01:33:59;;;;;;;13.55;3.15;;;;;;;15.27;100.00;102060.22;5205674;28;20080;-69
2023/06/27 01:36:48;;;;;;;17.05;2.88;;;;;;;15.27;100.00;102062.09;5204989;28;20025;-69
2023/06/27 01:39:25;;;;;;;12.40;2.83;;;;;;;15.29;100.00;102057.34;5205507;28;20030;-69
2023/06/27 01:42:07;;;;;;;12.45;3.15;;;;;;;15.30;100.00;102061.75;5205400;28;20017;-69
2023/06/27 01:44:39;;;;;;;14.07;2.97;;;;;;;15.29;100.00;102065.47;5205233;28;20018;-69
2023/06/27 01:47:11;;;;;;;13.18;2.60;;;;;;;15.29;100.00;102068.16;5204955;28;20029;-69
2023/06/27 01:49:42;;;;;;;17.80;3.00;;;;;;;15.30;100.00;102061.75;5204732;28;20451;-69
2023/06/27 01:52:12;;;;;;;13.68;3.42;;;;;;;15.27;100.00;102062.94;5204469;28;20064;-69
2023/06/27 01:54:43;;;;;;;15.23;2.70;;;;;;;15.25;100.00;102064.09;5205107;28;20025;-69
2023/06/27 01:57:14;;;;;;;16.40;3.10;;;;;;;15.21;100.00;102055.50;5204484;28;20458;-69
2023/06/27 01:59:44;;;;;;;14.10;3.80;;;;;;;15.19;100.00;102056.66;5204947;28;20040;-69
2023/06/27 02:02:15;;;;;;;17.42;3.90;;;;;;;15.17;100.00;102058.69;5205206;28;20530;-69
2023/06/27 02:04:46;;;;;;;16.20;3.38;;;;;;;15.16;100.00;102057.84;5204765;28;20033;-69
2023/06/27 02:07:18;;;;;;;16.17;3.13;;;;;;;15.20;100.00;102056.50;5204363;28;20503;-69
2023/06/27 02:09:48;;;;;;;14.55;3.65;;;;;;;15.20;100.00;102056.50;5204603;28;20064;-69
2023/06/27 02:12:19;;;;;;;17.42;3.80;;;;;;;15.23;100.00;102055.31;5204699;28;20119;-69
2023/06/27 02:14:49;;;;;;;10.13;3.28;;;;;;;15.21;100.00;102050.09;5204902;28;20022;-69
2023/06/27 02:17:20;;;;;;;12.63;3.10;;;;;;;15.23;100.00;102052.63;5203990;28;20023;-69
2023/06/27 02:19:50;;;;;;;20.50;3.10;;;;;;;15.24;100.00;102046.19;5204872;28;20487;-69
2023/06/27 02:22:21;;;;;;;11.10;3.08;;;;;;;15.22;100.00;102053.63;5204280;28;20386;-69
2023/06/27 02:24:51;;;;;;;12.27;3.17;;;;;;;15.19;100.00;102053.97;5204771;28;20026;-69
2023/06/27 02:27:22;;;;;;;13.52;3.25;;;;;;;15.14;100.00;102053.63;5203857;28;20104;-69
2023/06/27 02:29:52;;;;;;;20.15;3.60;;;;;;;15.12;100.00;102044.84;5204670;28;20040;-69
2023/06/27 02:32:23;;;;;;;15.25;3.22;;;;;;;15.10;100.00;102038.75;5204797;28;20104;-69
2023/06/27 02:34:53;;;;;;;15.88;3.88;;;;;;;15.12;100.00;102040.28;5204277;28;20037;-68
2023/06/27 02:37:24;;;;;;;9.77;2.63;;;;;;;15.15;100.00;102042.63;5204004;28;20018;-69
2023/06/27 02:39:56;;;;;;;18.83;3.60;;;;;;;15.13;100.00;102036.56;5204263;28;20045;-69
2023/06/27 02:42:26;;;;;;;13.55;3.13;;;;;;;15.11;100.00;102040.44;5204348;28;20025;-68
2023/06/27 02:44:57;;;;;;;19.45;3.90;;;;;;;15.11;100.00;102040.44;5204494;28;20490;-68
2023/06/27 02:47:27;;;;;;;15.00;3.65;;;;;;;15.08;100.00;102033.50;5203243;28;20467;-68
2023/06/27 02:49:58;;;;;;;11.65;3.53;;;;;;;15.06;100.00;102037.38;5204030;28;20021;-68
2023/06/27 02:52:28;;;;;;;12.95;3.47;;;;;;;15.05;100.00;102036.53;5204187;28;20582;-69
2023/06/27 02:54:59;;;;;;;13.52;3.97;;;;;;;15.03;100.00;102039.41;5203995;28;20033;-69
2023/06/27 02:57:30;;;;;;;14.18;3.92;;;;;;;15.02;100.00;102037.72;5203468;28;20116;-69
2023/06/27 03:00:00;;;;;;;17.52;3.58;;;;;;;14.99;100.00;102035.34;5203621;28;20095;-69
2023/06/27 03:02:31;;;;;;;21.30;4.40;;;;;;;14.98;100.00;102035.53;5203880;28;20018;-69
2023/06/27 03:05:02;;;;;;;13.52;4.18;;;;;;;14.98;100.00;102032.81;5203978;28;20052;-69
2023/06/27 03:07:32;;;;;;;22.75;4.38;;;;;;;14.95;100.00;102030.44;5203278;28;20079;-69
2023/06/27 03:10:03;;;;;;;15.15;3.88;;;;;;;14.91;100.00;102029.94;5203716;28;20030;-69
2023/06/27 03:12:33;;;;;;;13.48;3.80;;;;;;;14.92;100.00;102039.75;5203767;28;20060;-69
2023/06/27 03:15:04;;;;;;;24.58;4.10;;;;;;;14.86;100.00;102039.53;5203833;28;20067;-69
2023/06/27 03:17:35;;;;;;;13.80;3.53;;;;;;;14.83;100.00;102048.00;5202704;28;20399;-69
2023/06/27 03:20:06;;;;;;;18.75;4.30;;;;;;;14.80;100.00;102046.44;5203762;28;20029;-69
2023/06/27 03:22:36;;;;;;;15.65;3.72;;;;;;;14.74;100.00;102044.41;5203474;28;20191;-69
2023/06/27 03:25:10;;;;;;;17.02;3.92;;;;;;;14.65;100.00;102048.94;5203406;28;20017;-69
2023/06/27 03:27:40;;;;;;;15.43;3.72;;;;;;;14.57;100.00;102046.22;5203090;28;20064;-69
2023/06/27 03:30:12;;;;;;;17.17;4.28;;;;;;;14.52;100.00;102061.22;5203536;28;20071;-69
2023/06/27 03:32:42;;;;;;;13.38;3.97;;;;;;;14.49;100.00;102059.69;5203806;28;20053;-69
2023/06/27 03:35:13;;;;;;;17.38;3.97;;;;;;;14.46;100.00;102058.13;5202868;28;20168;-69
2023/06/27 03:37:43;;;;;;;18.52;5.13;;;;;;;14.41;100.00;102052.38;5203095;28;20494;-69
2023/06/27 03:40:14;;;;;;;23.92;4.90;;;;;;;14.39;100.00;102054.38;5203442;28;20044;-69
2023/06/27 03:42:44;;;;;;;14.05;4.18;;;;;;;14.41;100.00;102065.03;5203543;28;20475;-69
2023/06/27 03:45:15;;;;;;;20.95;4.57;;;;;;;14.40;100.00;102063.31;5203266;28;20026;-69
2023/06/27 03:47:45;;;;;;;17.52;4.28;;;;;;;14.40;100.00;102068.72;5202265;28;20027;-69
2023/06/27 03:50:16;;;;;;;18.33;4.53;;;;;;;14.41;100.00;102067.75;5203341;28;20025;-69
2023/06/27 03:52:46;;;;;;;12.50;3.95;;;;;;;14.40;100.00;102058.75;5203277;28;20091;-69
2023/06/27 03:55:17;;;;;;;16.88;5.18;;;;;;;14.37;100.00;102069.91;5203048;28;20051;-69
2023/06/27 03:57:48;;;;;;;14.00;4.03;;;;;;;14.40;100.00;102068.72;5202670;28;20108;-69
2023/06/27 04:00:19;;;;;;;22.45;5.57;;;;;;;14.36;100.00;102065.53;5203063;28;20761;-69
2023/06/27 04:02:49;;;;;;;18.05;4.60;;;;;;;14.35;100.00;102062.97;5203055;28;20021;-69
2023/06/27 04:05:20;;;;;;;20.88;5.07;;;;;;;14.35;100.00;102062.97;5202931;28;20026;-69
2023/06/27 04:07:51;;;;;;;20.17;5.05;;;;;;;14.36;100.00;102061.97;5202478;28;20044;-69
2023/06/27 04:10:21;;;;;;;14.32;4.40;;;;;;;14.36;100.00;102061.97;5202887;28;20030;-69
2023/06/27 04:12:52;;;;;;;17.65;4.55;;;;;;;14.35;100.00;102060.25;5202457;28;20788;-69
2023/06/27 04:15:23;;;;;;;16.15;4.38;;;;;;;14.38;100.00;102068.88;5202396;28;20045;-69
2023/06/27 04:17:53;;;;;;;16.05;4.53;;;;;;;14.39;100.00;102073.28;5202227;28;20029;-68
2023/06/27 04:20:24;;;;;;;20.52;4.57;;;;;;;14.40;100.00;102066.03;5202654;28;20112;-69
2023/06/27 04:22:54;;;;;;;17.50;4.78;;;;;;;14.41;100.00;102065.88;5202714;28;20035;-69
2023/06/27 04:25:32;;;;;;;20.92;4.80;;;;;;;14.40;100.00;102074.13;5198398;28;20033;-69
2023/06/27 04:28:04;;;;;;;20.67;5.15;;;;;;;14.43;100.00;102068.41;5199201;28;20091;-69
2023/06/27 04:30:34;;;;;;;17.65;4.55;;;;;;;14.43;100.00;102068.41;5202294;28;20061;-69
2023/06/27 04:33:04;;;;;;;16.50;4.93;;;;;;;14.46;100.00;102060.84;5202746;28;20100;-69
2023/06/27 04:35:35;;;;;;;23.25;5.30;;;;;;;14.50;100.00;102069.47;5201980;28;20018;-69
2023/06/27 04:38:05;;;;;;;12.60;4.10;;;;;;;14.52;100.00;102067.47;5234541;28;20033;-69
2023/06/27 04:40:36;;;;;;;18.23;4.55;;;;;;;14.59;100.00;102065.81;5202535;28;20431;-69
2023/06/27 04:43:06;;;;;;;21.75;5.38;;;;;;;14.67;100.00;102067.69;5202770;28;20026;-69
2023/06/27 04:45:37;;;;;;;23.27;5.35;;;;;;;14.74;100.00;102068.72;5202336;28;20733;-69
2023/06/27 04:48:07;;;;;;;19.35;5.03;;;;;;;14.84;100.00;102063.19;5201657;28;20398;-69
2023/06/27 04:50:38;;;;;;;21.27;4.63;;;;;;;14.93;100.00;102073.84;5202528;28;20546;-69
2023/06/27 04:53:08;;;;;;;21.73;4.38;;;;;;;15.01;100.00;102078.44;5202374;28;20399;-69
2023/06/27 04:55:38;;;;;;;15.82;4.28;;;;;;;15.07;100.00;102072.38;5202321;28;20025;-69
2023/06/27 04:58:09;;;;;;;18.75;4.18;;;;;;;15.14;100.00;102070.69;5202450;28;20112;-69
2023/06/27 05:00:39;;;;;;;17.48;4.70;;;;;;;15.17;100.00;102073.06;5202208;28;20024;-69
2023/06/27 05:03:11;;;;;;;20.60;4.40;;;;;;;15.23;100.00;102066.97;5221048;28;20072;-69
2023/06/27 05:05:42;;;;;;;21.55;4.60;;;;;;;15.29;100.00;102076.28;5201600;28;20052;-69
2023/06/27 05:08:12;;;;;;;16.95;4.38;;;;;;;15.34;100.00;102070.38;5202493;28;20056;-69
2023/06/27 05:10:43;;;;;;;20.70;4.90;;;;;;;15.34;100.00;102075.78;5202312;28;20422;-69
2023/06/27 05:13:14;;;;;;;16.13;4.07;;;;;;;15.35;100.00;102063.94;5202108;28;20071;-69
2023/06/27 05:15:45;;;;;;;20.48;4.30;;;;;;;15.34;100.00;102067.66;5201870;28;20056;-69
2023/06/27 05:18:15;;;;;;;12.38;3.90;;;;;;;15.37;100.00;102065.47;5201952;28;20026;-69
2023/06/27 05:20:47;;;;;;;19.13;4.25;;;;;;;15.42;100.00;102064.97;5202384;28;20025;-70
2023/06/27 05:23:18;;;;;;;14.85;4.05;;;;;;;15.43;100.00;102062.09;5202071;28;20026;-69
2023/06/27 05:25:49;;;;;;;20.13;4.63;;;;;;;15.50;100.00;102071.22;5202537;28;20116;-68
2023/06/27 05:28:20;;;;;;;20.35;3.95;;;;;;;15.56;100.00;102064.28;5205898;28;20070;-69
2023/06/27 05:30:50;;;;;;;21.35;4.65;;;;;;;15.64;100.00;102067.03;5205842;28;20489;-69
2023/06/27 05:33:21;;;;;;;29.10;4.57;;;;;;;15.72;100.00;102075.16;5206029;28;20029;-69
2023/06/27 05:35:51;;;;;;;22.55;3.53;;;;;;;15.84;100.00;102072.09;5205337;28;20068;-68
2023/06/27 05:38:21;;;;;;;17.58;3.78;;;;;;;15.91;100.00;102075.78;5205514;28;20027;-69
2023/06/27 05:40:52;;;;;;;22.90;4.45;;;;;;;16.00;100.00;102069.34;5205673;28;20043;-68
2023/06/27 05:43:23;;;;;;;26.45;5.07;;;;;;;16.08;100.00;102072.03;5205772;28;20044;-69
2023/06/27 05:45:53;;;;;;;21.80;4.95;;;;;;;16.20;100.00;102081.47;5220604;28;20033;-69
2023/06/27 05:48:24;;;;;;;19.65;4.38;;;;;;;16.29;100.00;102080.44;5205127;28;20486;-69
2023/06/27 05:50:54;;;;;;;14.52;4.78;;;;;;;16.39;100.00;102071.28;5205364;28;20477;-69
2023/06/27 05:53:25;;;;;;;20.95;4.43;;;;;;;16.51;100.00;102067.16;5205598;28;20026;-69
2023/06/27 05:55:55;;;;;;;17.40;4.57;;;;;;;16.62;100.00;102064.06;5237181;28;20156;-69
2023/06/27 05:58:25;;;;;;;16.75;3.97;;;;;;;16.77;100.00;102070.47;5205573;28;20494;-69
2023/06/27 06:00:56;;;;;;;22.10;4.47;;;;;;;16.96;100.00;102073.72;5205001;28;20101;-69
2023/06/27 06:03:26;;;;;;;18.77;4.63;;;;;;;17.18;100.00;102078.34;5205524;28;20033;-70
2023/06/27 06:05:57;;;;;;;18.92;4.07;;;;;;;17.59;100.00;102087.00;5204667;28;20017;-69
2023/06/27 06:08:27;;;;;;;20.95;4.43;;;;;;;17.76;100.00;102076.88;5237537;28;20037;-70
2023/06/27 06:10:58;;;;;;;28.55;5.70;;;;;;;17.90;100.00;102083.38;5204945;28;20033;-70
2023/06/27 06:13:28;;;;;;;15.55;3.78;;;;;;;18.14;100.00;102082.28;5204993;28;20021;-70
2023/06/27 06:15:59;;;;;;;15.23;3.35;;;;;;;18.48;100.00;102089.03;5204631;28;20029;-69
2023/06/27 06:18:29;;;;;;;14.30;4.07;;;;;;;18.79;100.00;102086.97;5204805;28;20029;-70
2023/06/27 06:21:00;;;;;;;17.63;3.63;;;;;;;18.97;100.00;102078.38;5204732;28;20120;-69
2023/06/27 06:23:30;;;;;;;20.42;4.10;;;;;;;18.80;100.00;102083.22;5204785;28;20032;-69
2023/06/27 06:26:00;;;;;;;13.05;3.70;;;;;;;18.86;100.00;102087.88;5203961;28;20029;-70
2023/06/27 06:28:31;;;;;;;19.33;4.13;;;;;;;18.91;100.00;102078.31;5204725;28;20022;-70
2023/06/27 06:31:01;;;;;;;20.60;3.97;;;;;;;19.43;100.00;102078.03;5204734;28;20033;-69
2023/06/27 06:33:32;;;;;;;19.73;4.20;;;;;;;19.77;100.00;102071.00;5204903;28;20078;-70
2023/06/27 06:36:04;;;;;;;23.08;3.75;;;;;;;20.23;100.00;102070.50;5203841;28;20064;-70
2023/06/27 06:38:34;;;;;;;16.80;3.70;;;;;;;20.90;100.00;102083.44;5204073;28;20025;-70
2023/06/27 06:41:05;;;;;;;16.17;3.90;;;;;;;21.27;100.00;102079.31;5204861;28;20043;-70
2023/06/27 06:43:35;;;;;;;13.90;3.47;;;;;;;21.55;100.00;102087.38;5204597;28;20021;-70
2023/06/27 06:46:06;;;;;;;13.85;3.85;;;;;;;21.46;100.00;102081.28;5204087;28;20594;-70
2023/06/27 06:48:36;;;;;;;26.48;4.95;;;;;;;21.46;100.00;102073.09;5204151;28;20441;-70
2023/06/27 06:51:08;;;;;;;16.42;3.90;;;;;;;21.59;100.00;102079.63;5203911;28;20025;-70
2023/06/27 06:53:38;;;;;;;21.90;3.95;;;;;;;21.95;100.00;102088.22;5204483;28;20025;-70
2023/06/27 06:56:09;;;;;;;17.88;3.92;;;;;;;22.61;100.00;102089.13;5203808;28;20029;-70
2023/06/27 06:58:39;;;;;;;14.05;3.35;;;;;;;23.08;100.00;102082.41;5204611;28;20021;-70
2023/06/27 07:01:10;;;;;;;13.77;3.30;;;;;;;23.13;100.00;102092.69;5204172;28;20104;-71
2023/06/27 07:03:41;;;;;;;17.58;3.30;;;;;;;23.00;100.00;102088.16;5204080;28;20094;-71
2023/06/27 07:06:11;;;;;;;17.80;3.85;;;;;;;23.16;100.00;102089.53;5203319;28;20021;-71
2023/06/27 07:08:42;;;;;;;12.48;3.97;;;;;;;23.53;100.00;102094.09;5204131;28;20108;-71
2023/06/27 07:11:13;;;;;;;17.38;3.58;;;;;;;23.74;100.00;102086.59;5203540;28;20033;-71
2023/06/27 07:13:43;;;;;;;11.05;3.00;;;;;;;23.66;100.00;102086.91;5204040;28;20026;-71
2023/06/27 07:16:14;;;;;;;16.77;3.20;;;;;;;23.37;100.00;102088.34;5202610;28;20036;-71
2023/06/27 07:18:44;;;;;;;14.00;3.28;;;;;;;23.50;100.00;102083.63;5203646;28;20013;-71
2023/06/27 07:21:15;;;;;;;12.40;2.95;;;;;;;24.12;100.00;102083.72;5203623;28;20029;-72
2023/06/27 07:23:45;;;;;;;14.27;3.53;;;;;;;23.62;100.00;102077.41;5234239;28;20108;-72
2023/06/27 07:26:16;;;;;;;12.13;3.42;;;;;;;23.88;100.00;102082.69;5202155;28;20029;-72
2023/06/27 07:28:46;;;;;;;11.13;3.38;;;;;;;23.62;100.00;102080.16;5202735;28;20029;-72
2023/06/27 07:31:17;;;;;;;15.95;3.60;;;;;;;23.49;100.00;102087.41;5202569;28;20026;-72
2023/06/27 07:33:47;;;;;;;12.35;3.10;;;;;;;23.39;100.00;102089.78;5202877;28;20029;-72
2023/06/27 07:36:18;;;;;;;12.40;3.22;;;;;;;23.44;100.00;102091.84;5200702;28;20021;-72
2023/06/27 07:38:48;;;;;;;16.25;3.95;;;;;;;23.81;100.00;102081.09;5200309;28;20037;-72
2023/06/27 07:41:19;;;;;;;12.20;3.00;;;;;;;23.89;100.00;102081.59;5196698;28;20021;-72
2023/06/27 07:43:50;;;;;;;11.38;3.03;;;;;;;23.82;100.00;102086.31;5225517;28;20068;-73
2023/06/27 07:46:20;;;;;;;12.32;2.88;;;;;;;23.80;100.00;102082.97;5202478;28;20554;-73
2023/06/27 07:48:51;;;;;;;11.23;2.90;;;;;;;23.99;100.00;102089.31;5202372;28;20488;-72
2023/06/27 07:51:21;;;;;;;12.50;2.83;;;;;;;24.42;100.00;102091.25;5202908;28;20622;-72
2023/06/27 07:53:52;;;;;;;11.10;2.80;;;;;;;24.21;100.00;102087.84;5203282;28;20028;-72
2023/06/27 07:56:22;;;;;;;12.70;2.78;;;;;;;24.16;100.00;102089.59;5202929;28;20021;-73
2023/06/27 07:58:53;;;;;;;11.63;2.72;;;;;;;24.18;100.00;102085.53;5202089;28;20034;-72
2023/06/27 08:01:23;;;;;;;15.32;2.97;;;;;;;24.01;100.00;102087.22;5203067;28;20022;-73
2023/06/27 08:03:54;;;;;;;8.48;2.25;;;;;;;23.77;100.00;102086.16;5202837;28;20047;-73
2023/06/27 08:06:24;;;;;;;11.82;3.08;;;;;;;23.52;100.00;102080.66;5202389;28;20111;-73
2023/06/27 08:08:54;;;;;;;14.45;2.85;;;;;;;23.56;100.00;102089.25;5202887;28;20104;-73
2023/06/27 08:11:25;;;;;;;9.00;2.40;;;;;;;23.62;100.00;102080.97;5202909;28;20037;-72
2023/06/27 08:13:55;;;;;;;9.68;3.03;;;;;;;23.58;100.00;102087.13;5203036;28;20437;-73
2023/06/27 08:16:26;;;;;;;13.75;2.38;;;;;;;23.42;100.00;102094.81;5201934;28;20032;-72
2023/06/27 08:18:56;;;;;;;13.88;2.83;;;;;;;23.51;100.00;102093.50;5202600;28;20109;-72
2023/06/27 08:21:27;;;;;;;11.73;3.22;;;;;;;23.48;100.00;102091.19;5203002;28;20108;-72
2023/06/27 08:23:57;;;;;;;13.15;3.00;;;;;;;24.01;100.00;102089.94;5202800;28;20104;-72
2023/06/27 08:26:28;;;;;;;12.20;2.70;;;;;;;24.20;100.00;102088.91;5202522;28;20520;-72
2023/06/27 08:28:58;;;;;;;12.27;3.28;;;;;;;24.09;100.00;102086.91;5202461;28;20105;-73
2023/06/27 08:31:29;;;;;;;10.30;2.85;;;;;;;24.33;100.00;102085.19;5202910;28;20375;-73
2023/06/27 08:34:00;;;;;;;11.05;2.85;;;;;;;24.53;100.00;102082.25;5202986;28;20037;-72
2023/06/27 08:36:30;;;;;;;12.90;2.72;;;;;;;24.75;100.00;102086.19;5234332;28;20018;-73
2023/06/27 08:39:01;;;;;;;9.48;2.33;;;;;;;24.89;100.00;102086.84;5202931;28;20075;-73
2023/06/27 08:41:31;;;;;;;11.60;3.00;;;;;;;25.09;100.00;102085.75;5202297;28;20020;-72
2023/06/27 08:44:02;;;;;;;9.13;2.70;;;;;;;24.98;100.00;102070.88;5202902;28;20471;-72
2023/06/27 08:46:34;;;;;;;13.27;3.58;;;;;;;24.58;100.00;102067.84;5202044;28;20029;-73
2023/06/27 08:49:05;;;;;;;11.63;2.28;;;;;;;24.38;100.00;102073.56;5202739;28;20120;-72
2023/06/27 08:51:38;;;;;;;8.40;2.15;;;;;;;24.39;100.00;102067.84;5202572;28;20507;-73
2023/06/27 08:54:16;;;;;;;12.95;2.55;;;;;;;24.85;100.00;102074.66;5202455;28;20132;-72
2023/06/27 08:56:47;;;;;;;8.18;2.20;;;;;;;24.73;100.00;102071.03;5202131;28;20429;-72
2023/06/27 08:59:23;;;;;;;11.85;2.42;;;;;;;24.78;100.00;102068.41;5202708;28;20030;-73
2023/06/27 09:01:54;;;;;;;11.77;2.20;;;;;;;25.14;100.00;102064.75;5206756;28;20048;-73
2023/06/27 09:04:26;;;;;;;12.07;2.67;;;;;;;25.35;100.00;102071.63;5206132;28;20021;-73
2023/06/27 09:06:57;;;;;;;12.75;2.40;;;;;;;24.98;100.00;102079.13;5205958;28;20029;-72
2023/06/27 09:09:29;;;;;;;7.97;2.65;;;;;;;24.68;100.00;102084.59;5206359;28;20036;-72
2023/06/27 09:12:02;;;;;;;7.28;1.70;;;;;;;24.96;100.00;102084.84;5206370;28;20049;-73
2023/06/27 09:14:33;;;;;;;4.78;1.80;;;;;;;25.39;100.00;102074.75;5206671;28;20071;-73
2023/06/27 09:17:05;;;;;;;7.28;1.70;;;;;;;25.84;100.00;102066.84;5205171;28;20029;-73
2023/06/27 09:19:37;;;;;;;9.75;2.08;;;;;;;26.27;100.00;102080.22;5206267;28;20510;-73
2023/06/27 09:22:08;;;;;;;11.70;2.15;;;;;;;26.67;100.00;102082.19;5206074;28;20083;-73
2023/06/27 09:24:40;;;;;;;6.20;1.73;;;;;;;26.51;100.00;102072.78;5206304;28;20029;-73
2023/06/27 09:27:30;;;;;;;9.50;2.17;;;;;;;27.15;100.00;102077.34;5205429;28;20038;-73
2023/06/27 09:30:02;;;;;;;7.18;1.90;;;;;;;26.96;100.00;102085.81;5206078;28;20040;-73
2023/06/27 09:32:34;;;;;;;8.82;2.80;;;;;;;26.59;100.00;102077.06;5205936;28;20033;-73
2023/06/27 09:35:05;;;;;;;7.15;2.05;;;;;;;26.39;100.00;102069.16;5205960;28;20057;-73
2023/06/27 09:37:35;;;;;;;10.82;2.28;;;;;;;26.80;100.00;102084.63;5205132;28;20132;-73
2023/06/27 09:40:20;;;;;;;7.93;1.83;;;;;;;27.27;100.00;102075.38;5205877;28;20518;-73
2023/06/27 09:42:53;;;;;;;5.20;1.33;;;;;;;27.42;100.00;102078.41;5205829;28;20386;-73
2023/06/27 09:45:24;;;;;;;6.03;1.70;;;;;;;27.47;93.24;102075.72;5205763;28;20018;-73
2023/06/27 09:47:55;;;;;;;5.63;1.58;;;;;;;26.78;100.00;102064.78;5205177;28;20324;-73
2023/06/27 09:50:27;;;;;;;6.10;2.03;;;;;;;26.13;100.00;102058.69;5205623;28;20034;-73
2023/06/27 09:53:00;;;;;;;5.13;1.80;;;;;;;26.19;100.00;102057.72;5205575;28;20021;-73
2023/06/27 09:55:31;;;;;;;5.10;1.35;;;;;;;26.35;100.00;102062.47;5205467;28;20025;-71
2023/06/27 09:58:02;;;;;;;7.15;1.88;;;;;;;26.38;95.63;102072.19;5205023;28;20108;-71
2023/06/27 10:00:33;;;;;;;3.97;1.50;;;;;;;26.20;100.00;102062.16;5205046;28;20024;-71
2023/06/27 10:03:08;;;;;;;5.10;1.40;;;;;;;26.43;100.00;102077.81;5205352;28;20022;-71
2023/06/27 10:05:38;;;;;;;5.40;1.60;;;;;;;26.26;91.77;102070.28;5205040;28;20026;-71
2023/06/27 10:08:09;;;;;;;3.83;1.45;;;;;;;26.21;94.71;102074.84;5205240;28;20540;-71
2023/06/27 10:10:40;;;;;;;8.63;1.60;;;;;;;25.79;98.08;102073.03;5205466;28;20546;-71
2023/06/27 10:13:10;;;;;;;9.05;1.80;;;;;;;25.33;100.00;102065.53;5204181;28;20034;-71
2023/06/27 10:15:41;;;;;;;8.20;1.60;;;;;;;25.75;100.00;102060.00;5204662;28;20087;-71
2023/06/27 10:18:11;;;;;;;5.53;1.55;;;;;;;26.11;100.00;102055.38;5187865;28;20029;-71
2023/06/27 10:20:42;;;;;;;5.72;1.67;;;;;;;26.18;99.27;102059.66;5201942;28;20028;-71
2023/06/27 10:23:14;;;;;;;5.45;1.40;;;;;;;25.89;100.00;102063.38;5204477;28;20029;-71
2023/06/27 10:25:45;;;;;;;6.13;1.33;;;;;;;25.74;88.57;102053.66;5203465;28;20040;-71
2023/06/27 10:28:16;;;;;;;6.72;1.75;;;;;;;25.54;91.66;102062.22;5204107;28;20426;-71
2023/06/27 10:30:47;;;;;;;6.20;1.70;;;;;;;25.07;100.00;102069.53;5204396;28;20040;-70
2023/06/27 10:33:22;;;;;;;6.47;1.60;;;;;;;24.85;100.00;102065.56;5204330;28;20047;-71
2023/06/27 10:35:55;;;;;;;;;;;;;;;24.56;100.00;102059.00;5204316;28;20029;-71
2023/06/27 10:38:39;;;;;;;8.52;1.30;;;;;;;24.25;100.00;102058.91;5204206;28;20373;-71
2023/06/27 10:41:11;;;;;;;5.45;1.50;;;;;;;24.33;100.00;102065.16;5204407;28;20109;-71
2023/06/27 10:44:08;;;;;;;7.90;1.70;;;;;;;24.31;100.00;102062.63;5204242;28;20047;-70
2023/06/27 10:46:38;;;;;;;5.10;1.33;;;;;;;24.24;100.00;102067.34;5202968;28;20083;-70
2023/06/27 10:49:10;;;;;;;7.10;1.75;;;;;;;24.13;100.00;102066.19;5204067;28;20471;-70
2023/06/27 10:51:44;;;;;;;7.15;1.48;;;;;;;23.86;100.00;102070.28;5203887;28;20072;-70
2023/06/27 10:54:16;;;;;;;8.93;1.92;;;;;;;23.47;100.00;102067.63;5203991;28;20020;-70
2023/06/27 10:56:51;;;;;;;6.55;1.75;;;;;;;23.14;100.00;102067.84;5200317;28;20040;-70
2023/06/27 10:59:23;;;;;;;8.43;1.92;;;;;;;22.90;100.00;102071.38;5203373;28;20041;-70
2023/06/27 11:02:00;;;;;;;4.40;1.67;;;;;;;22.65;100.00;102077.56;5203901;28;20100;-70
2023/06/27 11:04:49;;;;;;;7.13;1.45;;;;;;;22.42;100.00;102074.47;5203706;28;20382;-70
2023/06/27 11:07:22;;;;;;;6.47;2.08;;;;;;;22.38;100.00;102074.06;5202567;28;20029;-70
2023/06/27 11:09:55;;;;;;;8.38;2.47;;;;;;;22.32;100.00;102068.63;5203943;28;20103;-70
2023/06/27 11:12:33;;;;;;;7.80;1.70;;;;;;;22.29;100.00;102067.16;5203481;28;20091;-70
2023/06/27 11:15:04;;;;;;;7.38;1.83;;;;;;;22.39;100.00;102062.09;5197764;28;20032;-70
2023/06/27 11:17:37;;;;;;;8.13;1.77;;;;;;;22.38;100.00;102065.84;5202200;28;20393;-70
2023/06/27 11:20:09;;;;;;;8.80;1.98;;;;;;;22.49;100.00;102069.81;5203328;28;20032;-70
2023/06/27 11:22:40;;;;;;;8.73;2.03;;;;;;;22.81;100.00;102061.69;5203181;28;20037;-70
2023/06/27 11:25:14;;;;;;;11.23;2.17;;;;;;;23.15;100.00;102055.84;5203388;28;20029;-70
2023/06/27 11:27:44;;;;;;;6.72;1.55;;;;;;;23.52;100.00;102050.50;5202885;28;20505;-70
2023/06/27 11:30:16;;;;;;;6.22;1.95;;;;;;;24.10;100.00;102058.44;5203009;28;20037;-71
2023/06/27 11:32:46;;;;;;;13.00;1.65;;;;;;;24.12;100.00;102050.81;5202942;28;20030;-70